createdAt,value
2019-03-09T00:00:36.289Z,94.10
2019-03-09T00:03:03.006Z,94.20
2019-03-09T00:05:29.726Z,94.00
2019-03-09T00:07:56.428Z,94.10
2019-03-09T00:10:23.177Z,94.10
2019-03-09T00:12:49.821Z,94.40
2019-03-09T00:15:16.619Z,94.00
2019-03-09T00:17:43.448Z,94.20
2019-03-09T00:20:10.140Z,94.10
2019-03-09T00:22:36.935Z,94.10
2019-03-09T00:25:06.171Z,94.30
2019-03-09T00:27:34.748Z,94.00
2019-03-09T00:30:03.335Z,93.90
2019-03-09T00:32:30.051Z,93.70
2019-03-09T00:34:56.975Z,93.70
2019-03-09T00:37:23.712Z,93.70
2019-03-09T00:39:50.405Z,93.80
2019-03-09T00:42:17.048Z,93.70
2019-03-09T00:44:44.045Z,93.90
2019-03-09T00:47:10.724Z,93.90
2019-03-09T00:49:37.403Z,93.80
2019-03-09T00:52:04.032Z,93.80
2019-03-09T00:54:30.792Z,93.80
2019-03-09T00:56:59.854Z,93.80
2019-03-09T00:59:26.556Z,93.50
2019-03-09T01:01:53.202Z,93.60
2019-03-09T01:04:19.885Z,93.60
2019-03-09T01:06:46.513Z,93.50
2019-03-09T01:09:13.221Z,93.50
2019-03-09T01:11:39.856Z,93.50
2019-03-09T01:14:06.524Z,93.20
2019-03-09T01:16:33.227Z,93.40
2019-03-09T01:19:00.057Z,93.30
2019-03-09T01:21:26.877Z,93.20
2019-03-09T01:23:53.549Z,93.20
2019-03-09T01:26:20.342Z,93.30
2019-03-09T01:28:47.094Z,93.40
2019-03-09T01:31:14.245Z,93.50
2019-03-09T01:33:40.969Z,93.20
2019-03-09T01:36:07.669Z,93.10
2019-03-09T01:38:34.307Z,92.90
2019-03-09T01:41:00.989Z,93.00
2019-03-09T01:43:27.636Z,92.80
2019-03-09T01:45:54.316Z,92.90
2019-03-09T01:48:20.961Z,92.90
2019-03-09T01:50:47.605Z,92.80
2019-03-09T01:53:14.295Z,92.70
2019-03-09T01:55:40.937Z,92.50
2019-03-09T01:58:07.640Z,92.60
2019-03-09T02:00:34.611Z,92.70
2019-03-09T02:03:01.271Z,92.60
2019-03-09T02:05:27.908Z,92.60
2019-03-09T02:07:54.728Z,92.50
2019-03-09T02:10:21.340Z,92.60
2019-03-09T02:12:48.026Z,92.60
2019-03-09T02:15:15.317Z,92.70
2019-03-09T02:17:42.208Z,92.40
2019-03-09T02:20:11.463Z,92.70
2019-03-09T02:25:34.321Z,92.50
2019-03-09T02:28:00.984Z,92.50
2019-03-09T02:30:27.924Z,92.50
2019-03-09T02:32:54.649Z,92.60
2019-03-09T02:35:21.351Z,92.70
2019-03-09T02:37:47.990Z,93.00
2019-03-09T02:40:23.246Z,93.00
2019-03-09T02:42:50.112Z,93.00
2019-03-09T02:45:18.671Z,93.30
2019-03-09T02:47:45.369Z,93.40
2019-03-09T02:50:13.714Z,93.40
2019-03-09T02:52:40.485Z,93.30
2019-03-09T02:55:08.541Z,93.60
2019-03-09T02:57:35.313Z,93.80
2019-03-09T03:00:02.353Z,93.80
2019-03-09T03:02:30.957Z,93.60
2019-03-09T03:04:57.701Z,93.80
2019-03-09T03:07:24.457Z,93.90
2019-03-09T03:09:51.219Z,94.20
2019-03-09T03:12:18.077Z,94.40
2019-03-09T03:14:44.765Z,94.70
2019-03-09T03:17:11.413Z,94.70
2019-03-09T03:19:38.090Z,95.20
2019-03-09T03:22:04.720Z,95.20
2019-03-09T03:24:31.868Z,95.60
2019-03-09T03:26:58.593Z,95.60
2019-03-09T03:29:25.328Z,95.60
2019-03-09T03:31:52.189Z,95.60
2019-03-09T03:34:18.954Z,95.70
2019-03-09T03:36:45.632Z,95.50
2019-03-09T03:39:12.454Z,95.40
2019-03-09T03:41:39.198Z,95.30
2019-03-09T03:44:05.858Z,95.70
2019-03-09T03:46:32.532Z,95.90
2019-03-09T03:48:59.189Z,96.10
2019-03-09T03:51:26.212Z,96.50
2019-03-09T03:53:52.962Z,96.50
2019-03-09T03:56:19.833Z,96.90
2019-03-09T03:58:46.512Z,96.70
2019-03-09T04:01:13.294Z,97.10
2019-03-09T04:03:39.981Z,97.10
2019-03-09T04:06:06.610Z,97.40
2019-03-09T04:08:33.403Z,97.10
2019-03-09T04:11:00.593Z,97.20
2019-03-09T04:13:27.424Z,97.00
2019-03-09T04:15:54.249Z,97.20
2019-03-09T04:18:20.912Z,97.20
2019-03-09T04:20:47.603Z,97.40
2019-03-09T04:23:14.247Z,96.60
2019-03-09T04:25:40.960Z,97.00
2019-03-09T04:28:07.655Z,96.80
2019-03-09T04:30:34.464Z,96.80
2019-03-09T04:33:01.148Z,96.70
2019-03-09T04:35:27.805Z,97.10
2019-03-09T04:37:54.498Z,97.50
2019-03-09T04:40:21.153Z,98.20
2019-03-09T04:42:47.854Z,98.40
2019-03-09T04:45:14.488Z,98.20
2019-03-09T04:47:41.174Z,98.60
2019-03-09T04:50:11.984Z,98.50
2019-03-09T04:52:38.627Z,98.30
2019-03-09T04:55:06.436Z,98.60
2019-03-09T04:57:33.127Z,98.70
2019-03-09T04:59:59.804Z,98.50
2019-03-09T05:02:26.508Z,98.40
2019-03-09T05:04:53.148Z,98.50
2019-03-09T05:07:23.262Z,98.50
2019-03-09T05:10:02.401Z,98.50
2019-03-09T05:12:30.588Z,98.50
2019-03-09T05:14:57.310Z,98.10
2019-03-09T05:17:23.950Z,98.50
2019-03-09T05:19:50.581Z,98.50
2019-03-09T05:22:17.284Z,98.50
2019-03-09T05:24:44.043Z,98.30
2019-03-09T05:27:10.856Z,98.30
2019-03-09T05:29:37.518Z,98.60
2019-03-09T05:32:04.729Z,98.40
2019-03-09T05:34:31.505Z,98.60
2019-03-09T05:36:58.260Z,98.50
2019-03-09T05:39:24.929Z,98.70
2019-03-09T05:41:51.931Z,98.60
2019-03-09T05:44:18.545Z,98.40
2019-03-09T05:46:45.188Z,98.80
2019-03-09T05:49:11.874Z,99.00
2019-03-09T05:51:38.508Z,98.80
2019-03-09T05:54:05.214Z,98.50
2019-03-09T05:56:31.878Z,98.70
2019-03-09T05:58:58.612Z,98.50
2019-03-09T06:01:25.413Z,98.50
2019-03-09T06:03:52.059Z,98.70
2019-03-09T06:06:18.860Z,98.70
2019-03-09T06:08:45.512Z,99.00
2019-03-09T06:11:12.272Z,98.70
2019-03-09T06:13:38.942Z,98.80
2019-03-09T06:16:05.635Z,99.00
2019-03-09T06:18:32.253Z,99.10
2019-03-09T06:20:58.893Z,98.90
2019-03-09T06:23:25.594Z,99.30
2019-03-09T06:25:52.294Z,99.20
2019-03-09T06:28:19.031Z,99.10
2019-03-09T06:30:45.827Z,99.30
2019-03-09T06:33:18.714Z,99.10
2019-03-09T06:35:54.413Z,99.20
2019-03-09T06:38:46.021Z,99.20
2019-03-09T06:41:31.600Z,98.90
2019-03-09T06:43:58.319Z,99.00
2019-03-09T06:46:25.049Z,98.90
2019-03-09T06:48:51.851Z,98.80
2019-03-09T06:51:18.494Z,98.90
2019-03-09T06:53:45.135Z,98.80
2019-03-09T06:56:11.825Z,99.10
2019-03-09T06:58:38.578Z,99.50
2019-03-09T07:01:19.309Z,99.30
2019-03-09T07:03:45.969Z,99.10
2019-03-09T07:06:12.756Z,98.50
2019-03-09T07:08:39.534Z,98.70
2019-03-09T07:11:06.281Z,98.50
2019-03-09T07:13:33.036Z,98.70
2019-03-09T07:15:59.830Z,98.50
2019-03-09T07:18:26.487Z,98.20
2019-03-09T07:20:53.170Z,98.40
2019-03-09T07:23:22.852Z,98.10
2019-03-09T07:25:49.664Z,97.60
2019-03-09T07:28:16.494Z,97.60
2019-03-09T07:30:43.445Z,97.20
2019-03-09T07:33:10.078Z,96.70
2019-03-09T07:35:36.785Z,96.40
2019-03-09T07:38:03.503Z,96.40
2019-03-09T07:40:30.361Z,95.90
2019-03-09T07:42:57.123Z,95.80
2019-03-09T07:45:23.890Z,95.60
2019-03-09T07:47:51.240Z,95.10
2019-03-09T07:50:18.702Z,94.60
2019-03-09T07:52:45.698Z,94.30
2019-03-09T07:55:14.017Z,94.20
2019-03-09T07:57:41.096Z,94.50
2019-03-09T08:00:16.157Z,94.20
2019-03-09T08:02:42.824Z,93.80
2019-03-09T08:05:09.813Z,93.40
2019-03-09T08:07:36.466Z,93.10
2019-03-09T08:10:12.703Z,93.50
2019-03-09T08:12:39.439Z,93.40
2019-03-09T08:15:08.929Z,92.80
2019-03-09T08:17:35.792Z,92.30
2019-03-09T08:20:03.681Z,92.20
2019-03-09T08:22:30.466Z,92.10
2019-03-09T08:24:57.138Z,91.90
2019-03-09T08:27:23.809Z,91.20
2019-03-09T08:29:50.672Z,89.50
2019-03-09T08:32:17.322Z,89.50
2019-03-09T08:34:44.100Z,89.10
2019-03-09T08:37:10.764Z,88.50
2019-03-09T08:39:37.440Z,87.50
2019-03-09T08:42:04.136Z,86.90
2019-03-09T08:44:30.945Z,86.40
2019-03-09T08:46:57.581Z,86.30
2019-03-09T08:49:24.297Z,85.70
2019-03-09T08:51:50.992Z,84.20
2019-03-09T08:54:17.817Z,83.70
2019-03-09T08:56:44.515Z,84.00
2019-03-09T08:59:11.887Z,84.40
2019-03-09T09:01:38.610Z,85.10
2019-03-09T09:04:05.277Z,86.20
2019-03-09T09:06:32.062Z,87.20
2019-03-09T09:08:58.724Z,86.40
2019-03-09T09:11:25.400Z,85.20
2019-03-09T09:13:52.040Z,85.50
2019-03-09T09:16:20.089Z,84.70
2019-03-09T09:18:46.990Z,85.40
2019-03-09T09:21:13.743Z,85.60
2019-03-09T09:23:40.552Z,83.50
2019-03-09T09:26:07.245Z,83.60
2019-03-09T09:28:34.016Z,84.00
2019-03-09T09:31:00.691Z,84.40
2019-03-09T09:33:27.369Z,84.40
2019-03-09T09:35:54.012Z,84.70
2019-03-09T09:38:20.708Z,85.40
2019-03-09T09:40:47.365Z,85.40
2019-03-09T09:43:14.058Z,84.80
2019-03-09T09:45:40.686Z,85.10
2019-03-09T09:48:07.494Z,85.20
2019-03-09T09:50:34.133Z,84.20
2019-03-09T09:53:00.817Z,84.10
2019-03-09T09:55:27.494Z,85.40
2019-03-09T09:57:54.233Z,85.00
2019-03-09T10:00:23.124Z,84.70
2019-03-09T10:02:49.864Z,84.70
2019-03-09T10:05:16.557Z,85.10
2019-03-09T10:07:43.513Z,85.30
2019-03-09T10:10:17.773Z,85.50
2019-03-09T10:12:44.435Z,85.50
2019-03-09T10:15:16.560Z,85.20
2019-03-09T10:17:43.261Z,84.70
2019-03-09T10:20:11.440Z,84.70
2019-03-09T10:22:38.150Z,83.90
2019-03-09T10:25:07.170Z,83.30
2019-03-09T10:27:33.874Z,82.30
2019-03-09T10:30:00.570Z,82.00
2019-03-09T10:32:27.345Z,81.00
2019-03-09T10:34:53.995Z,80.00
2019-03-09T10:37:21.245Z,80.00
2019-03-09T10:39:48.972Z,78.60
2019-03-09T10:42:15.605Z,79.00
2019-03-09T10:44:42.409Z,78.70
2019-03-09T10:47:09.092Z,80.30
2019-03-09T10:49:35.741Z,78.60
2019-03-09T10:52:02.408Z,78.10
2019-03-09T10:54:36.031Z,77.90
2019-03-09T10:56:57.632Z,79.60
2019-03-09T10:59:24.289Z,80.30
2019-03-09T11:01:50.951Z,79.90
2019-03-09T11:04:27.027Z,78.90
2019-03-09T11:06:46.253Z,78.60
2019-03-09T11:09:12.981Z,79.70
2019-03-09T11:11:39.760Z,79.60
2019-03-09T11:14:06.446Z,79.50
2019-03-09T11:16:33.100Z,79.70
2019-03-09T11:18:59.851Z,79.90
2019-03-09T11:21:26.444Z,79.00
2019-03-09T11:23:53.190Z,78.30
2019-03-09T11:26:20.004Z,78.20
2019-03-09T11:28:46.732Z,77.70
2019-03-09T11:31:13.425Z,76.10
2019-03-09T11:33:40.096Z,77.40
2019-03-09T11:36:06.746Z,76.50
2019-03-09T11:38:33.416Z,76.10
2019-03-09T11:41:00.921Z,74.80
2019-03-09T11:43:27.823Z,75.00
2019-03-09T11:45:54.888Z,73.30
2019-03-09T11:48:21.515Z,74.50
2019-03-09T11:50:48.201Z,73.50
2019-03-09T11:53:14.937Z,71.20
2019-03-09T11:55:41.753Z,71.70
2019-03-09T11:58:08.885Z,71.20
2019-03-09T12:00:37.470Z,71.90
2019-03-09T12:03:04.128Z,70.60
2019-03-09T12:05:30.809Z,72.80
2019-03-09T12:07:57.455Z,72.20
2019-03-09T12:10:24.147Z,69.50
2019-03-09T12:12:50.777Z,68.70
2019-03-09T12:15:17.653Z,70.60
2019-03-09T12:17:44.394Z,70.60
2019-03-09T12:20:13.437Z,69.20
2019-03-09T12:22:40.109Z,68.50
2019-03-09T12:25:09.172Z,68.90
2019-03-09T12:27:35.853Z,68.20
2019-03-09T12:30:04.193Z,68.50
2019-03-09T12:32:30.961Z,70.00
2019-03-09T12:34:57.694Z,70.70
2019-03-09T12:37:24.386Z,71.30
2019-03-09T12:39:51.024Z,71.50
2019-03-09T12:42:17.697Z,71.60
2019-03-09T12:44:44.332Z,71.20
2019-03-09T12:47:11.133Z,70.60
2019-03-09T12:49:37.841Z,70.00
2019-03-09T12:52:04.620Z,70.00
2019-03-09T12:54:31.278Z,69.40
2019-03-09T12:56:57.900Z,70.70
2019-03-09T12:59:24.590Z,69.00
2019-03-09T13:01:51.223Z,69.80
2019-03-09T13:04:17.888Z,71.10
2019-03-09T13:06:44.524Z,70.90
2019-03-09T13:09:11.205Z,70.00
2019-03-09T13:11:37.846Z,71.00
2019-03-09T13:14:04.521Z,70.30
2019-03-09T13:16:31.202Z,68.30
2019-03-09T13:18:57.842Z,69.70
2019-03-09T13:21:24.513Z,70.00
2019-03-09T13:23:51.181Z,70.70
2019-03-09T13:26:17.878Z,69.10
2019-03-09T13:28:44.540Z,69.20
2019-03-09T13:31:11.271Z,69.80
2019-03-09T13:33:38.024Z,68.20
2019-03-09T13:36:06.210Z,67.30
2019-03-09T13:38:32.898Z,67.40
2019-03-09T13:40:59.553Z,70.70
2019-03-09T13:43:26.235Z,72.40
2019-03-09T13:45:52.873Z,72.40
2019-03-09T13:48:19.543Z,71.60
2019-03-09T13:50:46.177Z,70.80
2019-03-09T13:53:12.842Z,69.90
2019-03-09T13:55:39.488Z,69.70
2019-03-09T13:58:06.165Z,70.00
2019-03-09T14:00:40.063Z,70.50
2019-03-09T14:03:03.072Z,69.90
2019-03-09T14:05:29.857Z,68.80
2019-03-09T14:07:56.555Z,69.90
2019-03-09T14:10:23.195Z,68.70
2019-03-09T14:12:49.877Z,69.20
2019-03-09T14:15:16.715Z,69.20
2019-03-09T14:17:43.609Z,69.00
2019-03-09T14:20:11.701Z,69.50
2019-03-09T14:22:40.250Z,69.20
2019-03-09T14:25:09.148Z,68.20
2019-03-09T14:27:35.813Z,68.30
2019-03-09T14:30:05.150Z,69.00
2019-03-09T14:32:31.937Z,69.30
2019-03-09T14:34:58.579Z,74.60
2019-03-09T14:37:25.249Z,79.40
2019-03-09T14:39:51.916Z,83.30
2019-03-09T14:42:18.557Z,85.60
2019-03-09T14:44:45.224Z,87.90
2019-03-09T14:47:11.861Z,91.20
2019-03-09T14:49:38.542Z,93.80
2019-03-09T14:52:05.286Z,95.50
2019-03-09T14:54:31.938Z,94.60
2019-03-09T14:56:58.616Z,94.40
2019-03-09T14:59:25.288Z,94.20
2019-03-09T15:01:51.974Z,94.50
2019-03-09T15:04:18.589Z,94.10
2019-03-09T15:06:45.288Z,94.20
2019-03-09T15:09:12.028Z,93.00
2019-03-09T15:11:38.729Z,92.90
2019-03-09T15:14:05.362Z,92.40
2019-03-09T15:16:32.064Z,92.50
2019-03-09T15:18:58.723Z,92.90
2019-03-09T15:21:25.399Z,90.80
2019-03-09T15:23:52.065Z,89.70
2019-03-09T15:26:18.714Z,90.10
2019-03-09T15:28:45.413Z,88.60
2019-03-09T15:31:12.090Z,87.80
2019-03-09T15:33:38.864Z,88.40
2019-03-09T15:36:05.513Z,88.50
2019-03-09T15:38:32.214Z,88.10
2019-03-09T15:40:58.892Z,88.70
2019-03-09T15:43:25.719Z,89.30
2019-03-09T15:45:52.409Z,89.70
2019-03-09T15:48:19.159Z,89.40
2019-03-09T15:50:45.855Z,90.30
2019-03-09T15:53:12.489Z,91.40
2019-03-09T15:55:39.170Z,93.60
2019-03-09T15:58:05.805Z,95.80
2019-03-09T16:00:32.501Z,96.20
2019-03-09T16:02:59.146Z,96.60
2019-03-09T16:05:25.858Z,96.70
2019-03-09T16:07:52.499Z,95.60
2019-03-09T16:10:22.203Z,95.00
2019-03-09T16:12:48.869Z,96.00
2019-03-09T16:15:16.095Z,95.20
2019-03-09T16:17:42.802Z,95.50
2019-03-09T16:20:14.709Z,95.40
2019-03-09T16:22:41.497Z,94.90
2019-03-09T16:25:08.362Z,95.20
2019-03-09T16:27:35.036Z,95.30
2019-03-09T16:30:01.883Z,96.00
2019-03-09T16:32:28.590Z,96.10
2019-03-09T16:34:55.239Z,97.10
2019-03-09T16:37:21.950Z,97.20
2019-03-09T16:39:48.600Z,98.10
2019-03-09T16:42:15.388Z,97.20
2019-03-09T16:44:42.045Z,97.80
2019-03-09T16:47:08.833Z,96.90
2019-03-09T16:49:35.481Z,96.20
2019-03-09T16:52:02.214Z,96.90
2019-03-09T16:54:28.888Z,96.40
2019-03-09T16:56:55.730Z,96.40
2019-03-09T16:59:22.365Z,97.10
2019-03-09T17:01:48.980Z,96.90
2019-03-09T17:04:15.836Z,97.90
2019-03-09T17:06:42.480Z,97.40
2019-03-09T17:09:09.369Z,98.20
2019-03-09T17:11:36.092Z,97.20
2019-03-09T17:14:02.773Z,96.10
2019-03-09T17:16:29.465Z,95.70
2019-03-09T17:18:56.106Z,96.00
2019-03-09T17:21:22.793Z,95.50
2019-03-09T17:23:49.478Z,96.00
2019-03-09T17:26:16.172Z,96.00
2019-03-09T17:28:43.043Z,95.60
2019-03-09T17:31:09.724Z,95.80
2019-03-09T17:33:36.361Z,95.30
2019-03-09T17:36:03.134Z,94.40
2019-03-09T17:38:29.805Z,93.90
2019-03-09T17:40:56.532Z,93.80
2019-03-09T17:43:23.198Z,93.40
2019-03-09T17:45:49.845Z,92.90
2019-03-09T17:48:16.482Z,92.70
2019-03-09T17:50:43.158Z,92.50
2019-03-09T17:53:09.792Z,91.60
2019-03-09T17:55:36.610Z,90.70
2019-03-09T17:58:03.290Z,90.80
2019-03-09T18:00:41.804Z,90.70
2019-03-09T18:03:00.509Z,89.90
2019-03-09T18:05:27.259Z,90.60
2019-03-09T18:07:54.462Z,90.30
2019-03-09T18:10:27.480Z,90.30
2019-03-09T18:12:54.180Z,90.90
2019-03-09T18:15:21.785Z,90.70
2019-03-09T18:17:48.497Z,90.70
2019-03-09T18:20:15.137Z,90.40
2019-03-09T18:22:41.804Z,90.00
2019-03-09T18:25:08.493Z,90.10
2019-03-09T18:27:35.225Z,90.50
2019-03-09T18:30:02.217Z,90.70
2019-03-09T18:32:28.904Z,90.30
2019-03-09T18:34:55.700Z,91.00
2019-03-09T18:37:22.357Z,90.40
2019-03-09T18:39:49.023Z,91.00
2019-03-09T18:42:15.805Z,90.70
2019-03-09T18:44:42.440Z,90.80
2019-03-09T18:47:09.253Z,91.00
2019-03-09T18:49:36.412Z,90.40
2019-03-09T18:52:02.984Z,90.20
2019-03-09T18:54:29.656Z,90.30
2019-03-09T18:56:56.350Z,90.30
2019-03-09T18:59:23.000Z,89.90
2019-03-09T19:01:49.704Z,90.40
2019-03-09T19:04:18.014Z,90.30
2019-03-09T19:06:48.814Z,90.50
2019-03-09T19:09:17.145Z,90.10
2019-03-09T19:11:44.394Z,90.00
2019-03-09T19:14:11.572Z,88.90
2019-03-09T19:16:38.411Z,89.40
2019-03-09T19:19:05.230Z,89.90
2019-03-09T19:21:31.935Z,90.10
2019-03-09T19:23:58.721Z,89.60
2019-03-09T19:26:25.497Z,90.00
2019-03-09T19:28:52.261Z,90.00
2019-03-09T19:31:19.108Z,89.60
2019-03-09T19:33:46.153Z,90.10
2019-03-09T19:36:13.023Z,90.20
2019-03-09T19:38:40.197Z,89.90
2019-03-09T19:41:06.897Z,89.50
2019-03-09T19:43:33.609Z,90.20
2019-03-09T19:46:00.290Z,90.20
2019-03-09T19:48:26.974Z,89.90
2019-03-09T19:50:53.605Z,90.10
2019-03-09T19:53:20.240Z,90.20
2019-03-09T19:55:46.912Z,90.20
2019-03-09T19:58:13.581Z,90.10
2019-03-09T20:00:40.268Z,90.60
2019-03-09T20:03:06.935Z,90.10
2019-03-09T20:05:33.618Z,90.30
2019-03-09T20:08:00.284Z,90.20
2019-03-09T20:10:27.017Z,90.40
2019-03-09T20:12:54.037Z,90.20
2019-03-09T20:15:20.979Z,90.40
2019-03-09T20:17:47.889Z,90.30
2019-03-09T20:20:15.548Z,90.40
2019-03-09T20:22:42.465Z,90.50
2019-03-09T20:25:09.374Z,90.30
2019-03-09T20:27:36.250Z,90.50
2019-03-09T20:30:11.796Z,90.60
2019-03-09T20:32:38.464Z,90.70
2019-03-09T20:35:06.909Z,90.40
2019-03-09T20:37:33.685Z,90.00
2019-03-09T20:40:00.411Z,89.60
2019-03-09T20:42:27.092Z,89.90
2019-03-09T20:44:53.789Z,89.50
2019-03-09T20:47:20.715Z,89.10
2019-03-09T20:49:47.364Z,89.10
2019-03-09T20:52:14.442Z,89.70
2019-03-09T20:54:41.377Z,90.60
2019-03-09T20:57:08.495Z,90.40
2019-03-09T20:59:35.156Z,90.30
2019-03-09T21:02:02.181Z,90.70
2019-03-09T21:04:28.779Z,90.40
2019-03-09T21:06:55.561Z,90.20
2019-03-09T21:09:22.201Z,90.70
2019-03-09T21:11:48.879Z,90.70
2019-03-09T21:14:15.561Z,90.60
2019-03-09T21:16:42.194Z,90.60
2019-03-09T21:19:08.876Z,90.50
2019-03-09T21:21:35.669Z,90.60
2019-03-09T21:24:02.536Z,90.00
2019-03-09T21:26:29.440Z,90.30
2019-03-09T21:28:56.117Z,90.20
2019-03-09T21:31:22.937Z,90.20
2019-03-09T21:33:49.606Z,90.00
2019-03-09T21:36:16.947Z,90.20
2019-03-09T21:38:43.520Z,89.70
2019-03-09T21:41:10.335Z,89.20
2019-03-09T21:43:37.029Z,89.80
2019-03-09T21:46:03.713Z,89.80
2019-03-09T21:48:30.466Z,89.80
2019-03-09T21:50:57.245Z,90.00
2019-03-09T21:53:23.897Z,88.90
2019-03-09T21:55:50.597Z,89.30
2019-03-09T21:58:17.250Z,89.90
2019-03-09T22:00:43.906Z,89.10
2019-03-09T22:03:10.780Z,88.80
2019-03-09T22:05:37.448Z,88.70
2019-03-09T22:08:04.125Z,88.80
2019-03-09T22:10:30.767Z,89.50
2019-03-09T22:12:57.445Z,90.10
2019-03-09T22:15:24.078Z,89.90
2019-03-09T22:17:50.771Z,90.00
2019-03-09T22:20:17.620Z,90.00
2019-03-09T22:22:44.316Z,90.10
2019-03-09T22:25:14.753Z,90.50
2019-03-09T22:27:41.506Z,90.60
2019-03-09T22:30:21.481Z,90.80
2019-03-09T22:32:48.173Z,90.80
2019-03-09T22:35:14.867Z,90.90
2019-03-09T22:37:41.559Z,90.80
2019-03-09T22:40:14.053Z,90.70
2019-03-09T22:42:40.760Z,90.70
2019-03-09T22:45:09.838Z,91.10
2019-03-09T22:47:36.477Z,90.70
2019-03-09T22:50:08.505Z,90.60
2019-03-09T22:52:35.178Z,90.60
2019-03-09T22:55:01.839Z,90.80
2019-03-09T22:57:28.509Z,90.50
2019-03-09T22:59:55.187Z,89.80
2019-03-09T23:02:21.869Z,89.40
2019-03-09T23:04:48.621Z,90.30
2019-03-09T23:07:15.338Z,90.30
2019-03-09T23:09:42.105Z,90.10
2019-03-09T23:12:08.798Z,90.00
2019-03-09T23:14:35.432Z,90.40
2019-03-09T23:17:02.117Z,90.10
2019-03-09T23:19:28.805Z,90.20
2019-03-09T23:21:55.593Z,89.40
2019-03-09T23:24:22.277Z,89.10
2019-03-09T23:26:48.963Z,90.20
2019-03-09T23:29:15.603Z,90.40
2019-03-09T23:31:42.370Z,89.90
2019-03-09T23:34:09.041Z,89.90
2019-03-09T23:36:35.798Z,89.50
2019-03-09T23:39:05.897Z,89.30
2019-03-09T23:41:32.597Z,87.90
2019-03-09T23:43:59.380Z,88.90
2019-03-09T23:46:26.012Z,89.00
2019-03-09T23:48:52.917Z,88.50
2019-03-09T23:51:19.697Z,89.00
2019-03-09T23:53:46.324Z,88.20
2019-03-09T23:56:13.768Z,89.30
2019-03-09T23:58:40.735Z,90.40
